createdAt,value
2023-05-23T00:00:55.854Z,88.13
2023-05-23T00:01:55.824Z,89.04
2023-05-23T00:02:56.069Z,88.43
2023-05-23T00:03:55.827Z,88.13
2023-05-23T00:04:55.777Z,88.33
2023-05-23T00:05:55.820Z,88.23
2023-05-23T00:06:55.707Z,88.84
2023-05-23T00:07:55.800Z,88.43
2023-05-23T00:08:55.735Z,88.23
2023-05-23T00:09:55.718Z,88.84
2023-05-23T00:10:55.597Z,88.13
2023-05-23T00:11:55.631Z,88.53
2023-05-23T00:12:55.567Z,88.09
2023-05-23T00:13:55.640Z,87.38
2023-05-23T00:14:55.521Z,87.38
2023-05-23T00:15:55.551Z,87.79
2023-05-23T00:16:55.596Z,87.32
2023-05-23T00:17:55.530Z,87.48
2023-05-23T00:18:55.475Z,87.32
2023-05-23T00:19:55.406Z,87.08
2023-05-23T00:20:55.485Z,87.18
2023-05-23T00:21:55.381Z,87.28
2023-05-23T00:22:55.354Z,87.58
2023-05-23T00:23:55.409Z,86.98
2023-05-23T00:24:55.395Z,87.18
2023-05-23T00:25:55.324Z,87.58
2023-05-23T00:26:55.265Z,87.48
2023-05-23T00:27:55.369Z,87.88
2023-05-23T00:28:55.223Z,87.99
2023-05-23T00:29:55.244Z,87.44
2023-05-23T00:30:55.187Z,87.48
2023-05-23T00:31:55.263Z,86.98
2023-05-23T00:32:55.219Z,87.88
2023-05-23T00:33:55.174Z,87.79
2023-05-23T00:34:55.101Z,85.76
2023-05-23T00:35:55.200Z,86.07
2023-05-23T00:36:55.054Z,85.56
2023-05-23T00:37:55.112Z,85.86
2023-05-23T00:38:55.015Z,85.60
2023-05-23T00:39:55.010Z,85.60
2023-05-23T00:40:54.984Z,85.39
2023-05-23T00:41:55.027Z,84.75
2023-05-23T00:42:54.944Z,84.48
2023-05-23T00:43:55.958Z,84.19
2023-05-23T00:44:54.897Z,84.19
2023-05-23T00:45:54.876Z,84.28
2023-05-23T00:46:54.985Z,84.28
2023-05-23T00:47:54.907Z,83.88
2023-05-23T00:48:54.812Z,83.98
2023-05-23T00:49:54.892Z,83.37
2023-05-23T00:50:54.781Z,84.28
2023-05-23T00:51:54.800Z,84.28
2023-05-23T00:52:54.756Z,84.08
2023-05-23T00:53:54.817Z,84.19
2023-05-23T00:54:54.687Z,84.08
2023-05-23T00:55:54.745Z,84.19
2023-05-23T00:56:54.817Z,84.39
2023-05-23T00:57:54.636Z,84.42
2023-05-23T00:58:54.642Z,84.19
2023-05-23T00:59:54.583Z,84.28
2023-05-23T01:00:54.657Z,84.48
2023-05-23T01:01:54.592Z,84.28
2023-05-23T01:02:54.687Z,84.48
2023-05-23T01:03:54.572Z,84.39
2023-05-23T01:04:54.630Z,84.39
2023-05-23T01:05:54.472Z,84.19
2023-05-23T01:06:54.503Z,84.39
2023-05-23T01:07:54.420Z,84.59
2023-05-23T01:08:54.383Z,85.24
2023-05-23T01:09:54.411Z,85.54
2023-05-23T01:10:54.347Z,85.84
2023-05-23T01:11:54.426Z,85.84
2023-05-23T01:12:54.413Z,85.84
2023-05-23T01:13:54.336Z,85.74
2023-05-23T01:14:54.256Z,85.44
2023-05-23T01:15:54.389Z,85.94
2023-05-23T01:16:54.267Z,85.33
2023-05-23T01:17:54.300Z,86.15
2023-05-23T01:18:54.191Z,86.65
2023-05-23T01:19:54.155Z,86.25
2023-05-23T01:20:54.150Z,86.35
2023-05-23T01:21:54.201Z,87.00
2023-05-23T01:22:54.104Z,87.20
2023-05-23T01:23:54.099Z,86.96
2023-05-23T01:24:54.048Z,86.96
2023-05-23T01:25:54.027Z,86.65
2023-05-23T01:26:54.010Z,87.26
2023-05-23T01:27:54.026Z,86.85
2023-05-23T01:28:54.056Z,87.26
2023-05-23T01:29:54.045Z,87.05
2023-05-23T01:30:53.921Z,86.05
2023-05-23T01:31:53.921Z,86.35
2023-05-23T01:32:54.061Z,87.16
2023-05-23T01:33:53.867Z,86.85
2023-05-23T01:34:53.887Z,86.05
2023-05-23T01:35:53.817Z,86.25
2023-05-23T01:36:53.916Z,85.54
2023-05-23T01:37:53.784Z,86.15
2023-05-23T01:38:53.804Z,85.64
2023-05-23T01:39:53.971Z,86.08
2023-05-23T01:40:53.817Z,86.59
2023-05-23T01:41:53.699Z,85.99
2023-05-23T01:42:53.685Z,86.59
2023-05-23T01:43:53.647Z,86.39
2023-05-23T01:44:53.736Z,86.49
2023-05-23T01:45:53.638Z,87.10
2023-05-23T01:46:53.659Z,86.08
2023-05-23T01:47:53.596Z,85.68
2023-05-23T01:48:53.558Z,86.19
2023-05-23T01:49:53.553Z,86.19
2023-05-23T01:50:53.590Z,86.08
2023-05-23T01:51:53.494Z,86.19
2023-05-23T01:52:53.508Z,85.68
2023-05-23T01:53:53.440Z,85.78
2023-05-23T01:54:53.422Z,85.38
2023-05-23T01:55:53.433Z,85.27
2023-05-23T01:56:53.377Z,84.87
2023-05-23T01:57:53.438Z,85.48
2023-05-23T01:58:53.336Z,85.17
2023-05-23T01:59:53.346Z,84.67
2023-05-23T02:00:53.416Z,84.77
2023-05-23T02:01:53.368Z,84.56
2023-05-23T02:02:53.392Z,84.56
2023-05-23T02:03:53.295Z,84.67
2023-05-23T02:04:53.204Z,84.47
2023-05-23T02:05:53.198Z,85.38
2023-05-23T02:06:53.168Z,84.47
2023-05-23T02:07:53.197Z,84.47
2023-05-23T02:08:53.122Z,84.67
2023-05-23T02:09:53.214Z,84.47
2023-05-23T02:10:53.094Z,84.97
2023-05-23T02:11:53.086Z,84.97
2023-05-23T02:12:53.150Z,85.07
2023-05-23T02:13:53.030Z,84.67
2023-05-23T02:14:53.050Z,84.47
2023-05-23T02:15:52.979Z,84.56
2023-05-23T02:16:54.108Z,84.47
2023-05-23T02:17:52.990Z,84.77
2023-05-23T02:18:53.137Z,84.97
2023-05-23T02:19:52.902Z,84.87
2023-05-23T02:20:52.897Z,85.17
2023-05-23T02:21:52.847Z,85.07
2023-05-23T02:22:52.897Z,84.87
2023-05-23T02:23:52.808Z,84.67
2023-05-23T02:24:52.809Z,84.77
2023-05-23T02:25:52.765Z,84.47
2023-05-23T02:26:52.835Z,84.56
2023-05-23T02:27:52.734Z,84.56
2023-05-23T02:28:52.706Z,84.67
2023-05-23T02:29:52.677Z,85.17
2023-05-23T02:30:52.777Z,84.47
2023-05-23T02:31:52.648Z,85.27
2023-05-23T02:32:52.784Z,85.07
2023-05-23T02:33:52.593Z,85.17
2023-05-23T02:34:53.737Z,85.78
2023-05-23T02:35:52.553Z,85.78
2023-05-23T02:36:52.590Z,85.48
2023-05-23T02:37:52.528Z,85.48
2023-05-23T02:38:52.503Z,85.88
2023-05-23T02:39:52.469Z,85.68
2023-05-23T02:40:52.447Z,85.68
2023-05-23T02:41:52.529Z,85.38
2023-05-23T02:42:52.425Z,85.88
2023-05-23T02:43:52.438Z,85.58
2023-05-23T02:44:52.367Z,85.48
2023-05-23T02:45:52.363Z,85.17
2023-05-23T02:46:52.316Z,85.52
2023-05-23T02:47:52.508Z,85.62
2023-05-23T02:48:52.366Z,85.48
2023-05-23T02:49:52.280Z,85.48
2023-05-23T02:50:52.230Z,85.88
2023-05-23T02:51:52.206Z,85.99
2023-05-23T02:52:52.200Z,85.38
2023-05-23T02:53:52.202Z,85.68
2023-05-23T02:54:52.140Z,85.88
2023-05-23T02:55:52.224Z,86.33
2023-05-23T02:56:52.101Z,86.63
2023-05-23T02:57:52.073Z,87.10
2023-05-23T02:58:52.134Z,86.83
2023-05-23T02:59:52.034Z,87.24
2023-05-23T03:00:52.051Z,87.95
2023-05-23T03:01:52.041Z,87.24
2023-05-23T03:02:52.124Z,86.43
2023-05-23T03:03:51.986Z,87.04
2023-05-23T03:04:52.086Z,87.95
2023-05-23T03:05:51.928Z,87.74
2023-05-23T03:06:52.011Z,87.85
2023-05-23T03:07:51.899Z,87.59
2023-05-23T03:08:51.915Z,87.45
2023-05-23T03:09:51.859Z,88.25
2023-05-23T03:10:51.933Z,88.20
2023-05-23T03:11:51.818Z,88.40
2023-05-23T03:12:51.840Z,88.49
2023-05-23T03:13:51.776Z,88.90
2023-05-23T03:14:51.778Z,88.60
2023-05-23T03:15:51.784Z,88.60
2023-05-23T03:16:51.780Z,88.90
2023-05-23T03:17:51.738Z,88.49
2023-05-23T03:18:51.697Z,89.11
2023-05-23T03:19:51.650Z,88.60
2023-05-23T03:20:51.730Z,88.49
2023-05-23T03:21:51.703Z,88.20
2023-05-23T03:22:51.594Z,88.09
2023-05-23T03:23:51.639Z,88.29
2023-05-23T03:24:51.562Z,88.20
2023-05-23T03:25:51.531Z,88.49
2023-05-23T03:26:51.491Z,87.99
2023-05-23T03:27:51.537Z,88.09
2023-05-23T03:28:51.456Z,88.29
2023-05-23T03:29:51.456Z,87.69
2023-05-23T03:30:51.401Z,88.20
2023-05-23T03:31:51.501Z,87.69
2023-05-23T03:32:51.401Z,87.48
2023-05-23T03:33:51.382Z,87.99
2023-05-23T03:34:51.322Z,88.09
2023-05-23T03:35:51.407Z,88.03
2023-05-23T03:36:51.380Z,87.73
2023-05-23T03:37:51.263Z,88.03
2023-05-23T03:38:51.230Z,87.93
2023-05-23T03:39:51.321Z,88.09
2023-05-23T03:40:51.189Z,88.03
2023-05-23T03:41:51.261Z,88.03
2023-05-23T03:42:51.153Z,87.99
2023-05-23T03:43:51.129Z,87.83
2023-05-23T03:44:51.104Z,88.13
2023-05-23T03:45:51.195Z,88.23
2023-05-23T03:46:51.072Z,88.09
2023-05-23T03:47:51.105Z,87.48
2023-05-23T03:48:51.017Z,87.48
2023-05-23T03:49:50.994Z,87.28
2023-05-23T03:50:50.972Z,87.69
2023-05-23T03:51:51.004Z,87.38
2023-05-23T03:52:51.033Z,87.48
2023-05-23T03:53:51.011Z,87.38
2023-05-23T03:54:50.886Z,87.38
2023-05-23T03:55:50.868Z,87.28
2023-05-23T03:56:50.930Z,87.59
2023-05-23T03:57:50.832Z,87.38
2023-05-23T03:58:50.845Z,87.28
2023-05-23T03:59:50.773Z,87.59
2023-05-23T04:00:50.766Z,87.48
2023-05-23T04:01:50.732Z,87.38
2023-05-23T04:02:50.908Z,87.48
2023-05-23T04:03:50.735Z,86.47
2023-05-23T04:04:50.681Z,86.68
2023-05-23T04:05:50.649Z,87.69
2023-05-23T04:06:50.624Z,87.48
2023-05-23T04:07:50.613Z,87.38
2023-05-23T04:08:50.711Z,87.59
2023-05-23T04:09:50.571Z,87.38
2023-05-23T04:10:50.644Z,87.18
2023-05-23T04:11:50.524Z,87.79
2023-05-23T04:12:50.503Z,87.48
2023-05-23T04:13:50.574Z,87.28
2023-05-23T04:14:50.461Z,87.59
2023-05-23T04:15:50.503Z,87.38
2023-05-23T04:16:50.409Z,87.38
2023-05-23T04:17:50.506Z,87.38
2023-05-23T04:18:50.416Z,87.93
2023-05-23T04:19:50.382Z,87.48
2023-05-23T04:20:50.327Z,87.79
2023-05-23T04:21:50.289Z,87.89
2023-05-23T04:22:50.270Z,87.79
2023-05-23T04:23:50.232Z,87.83
2023-05-23T04:24:50.298Z,88.44
2023-05-23T04:25:50.213Z,87.83
2023-05-23T04:26:50.174Z,87.93
2023-05-23T04:27:50.244Z,88.13
2023-05-23T04:28:50.109Z,88.09
2023-05-23T04:29:50.097Z,88.03
2023-05-23T04:30:50.112Z,88.09
2023-05-23T04:31:50.240Z,88.23
2023-05-23T04:32:50.111Z,88.13
2023-05-23T04:33:50.065Z,88.09
2023-05-23T04:34:49.987Z,88.70
2023-05-23T04:35:49.964Z,88.09
2023-05-23T04:36:49.987Z,87.59
2023-05-23T04:37:49.927Z,88.20
2023-05-23T04:38:50.028Z,88.29
2023-05-23T04:39:49.876Z,88.09
2023-05-23T04:40:50.004Z,88.29
2023-05-23T04:41:49.830Z,88.23
2023-05-23T04:42:49.926Z,88.54
2023-05-23T04:43:49.787Z,88.40
2023-05-23T04:44:49.849Z,87.99
2023-05-23T04:45:49.742Z,88.70
2023-05-23T04:46:49.776Z,88.20
2023-05-23T04:47:49.727Z,88.09
2023-05-23T04:48:49.774Z,88.29
2023-05-23T04:49:49.659Z,88.20
2023-05-23T04:50:49.680Z,88.20
2023-05-23T04:51:49.607Z,88.20
2023-05-23T04:52:49.605Z,87.99
2023-05-23T04:53:49.591Z,87.89
2023-05-23T04:54:49.612Z,87.48
2023-05-23T04:55:49.546Z,87.28
2023-05-23T04:56:49.612Z,87.34
2023-05-23T04:57:49.516Z,87.38
2023-05-23T04:58:49.474Z,87.38
2023-05-23T04:59:49.540Z,87.59
2023-05-23T05:00:49.495Z,87.38
2023-05-23T05:01:49.453Z,88.09
2023-05-23T05:02:49.431Z,87.28
2023-05-23T05:03:49.409Z,87.48
2023-05-23T05:04:49.352Z,87.69
2023-05-23T05:05:49.385Z,88.09
2023-05-23T05:06:49.282Z,88.09
2023-05-23T05:07:49.290Z,88.20
2023-05-23T05:08:49.240Z,88.20
2023-05-23T05:09:49.225Z,88.09
2023-05-23T05:10:49.195Z,87.79
2023-05-23T05:11:49.225Z,87.89
2023-05-23T05:12:49.261Z,88.09
2023-05-23T05:13:49.238Z,88.09
2023-05-23T05:14:49.115Z,87.99
2023-05-23T05:15:49.102Z,88.20
2023-05-23T05:16:49.185Z,88.20
2023-05-23T05:17:50.063Z,88.49
2023-05-23T05:18:49.116Z,88.54
2023-05-23T05:19:49.003Z,89.01
2023-05-23T05:20:49.085Z,88.60
2023-05-23T05:21:48.971Z,89.51
2023-05-23T05:22:48.987Z,89.55
2023-05-23T05:23:48.915Z,89.15
2023-05-23T05:24:49.004Z,88.54
2023-05-23T05:25:48.869Z,89.11
2023-05-23T05:26:48.929Z,89.45
2023-05-23T05:27:48.842Z,89.15
2023-05-23T05:28:48.921Z,89.55
2023-05-23T05:29:48.796Z,88.75
2023-05-23T05:30:48.884Z,88.29
2023-05-23T05:31:48.739Z,88.60
2023-05-23T05:32:48.746Z,88.40
2023-05-23T05:33:48.696Z,89.21
2023-05-23T05:34:49.621Z,88.20
2023-05-23T05:35:48.649Z,88.20
2023-05-23T05:36:48.681Z,87.79
2023-05-23T05:37:48.633Z,87.99
2023-05-23T05:38:48.596Z,88.09
2023-05-23T05:39:48.566Z,88.60
2023-05-23T05:40:48.606Z,87.79
2023-05-23T05:41:48.540Z,88.29
2023-05-23T05:42:48.640Z,89.21
2023-05-23T05:43:48.476Z,88.40
2023-05-23T05:44:48.554Z,89.61
2023-05-23T05:45:48.548Z,89.61
2023-05-23T05:46:48.533Z,88.40
2023-05-23T05:47:48.484Z,88.40
2023-05-23T05:48:48.385Z,88.60
2023-05-23T05:49:49.392Z,88.40
2023-05-23T05:50:48.342Z,87.69
2023-05-23T05:51:48.381Z,88.54
2023-05-23T05:52:48.300Z,88.49
2023-05-23T05:53:48.289Z,87.99
2023-05-23T05:54:48.277Z,88.03
2023-05-23T05:55:48.231Z,88.09
2023-05-23T05:56:48.232Z,88.40
2023-05-23T05:57:48.219Z,87.99
2023-05-23T05:58:48.185Z,87.28
2023-05-23T05:59:48.244Z,87.79
2023-05-23T06:00:48.208Z,87.54
2023-05-23T06:01:48.092Z,87.24
2023-05-23T06:02:48.126Z,87.34
2023-05-23T06:03:48.387Z,87.14
2023-05-23T06:04:48.055Z,87.74
2023-05-23T06:05:48.102Z,87.24
2023-05-23T06:06:48.178Z,87.99
2023-05-23T06:07:47.976Z,87.04
2023-05-23T06:08:48.020Z,86.13
2023-05-23T06:09:48.007Z,87.18
2023-05-23T06:10:48.066Z,86.43
2023-05-23T06:11:47.922Z,86.13
2023-05-23T06:12:47.968Z,85.93
2023-05-23T06:13:47.841Z,85.72
2023-05-23T06:14:47.933Z,86.13
2023-05-23T06:15:47.858Z,86.02
2023-05-23T06:16:48.242Z,86.43
2023-05-23T06:17:47.787Z,85.62
2023-05-23T06:18:47.733Z,85.72
2023-05-23T06:19:47.702Z,86.02
2023-05-23T06:20:47.830Z,85.68
2023-05-23T06:21:47.661Z,85.72
2023-05-23T06:22:47.750Z,85.93
2023-05-23T06:23:47.689Z,85.72
2023-05-23T06:24:47.598Z,85.42
2023-05-23T06:25:47.578Z,85.21
2023-05-23T06:26:47.666Z,85.17
2023-05-23T06:27:47.540Z,85.31
2023-05-23T06:28:47.590Z,85.68
2023-05-23T06:29:47.488Z,85.82
2023-05-23T06:30:47.463Z,85.68
2023-05-23T06:31:47.616Z,85.82
2023-05-23T06:32:47.487Z,85.93
2023-05-23T06:33:47.529Z,85.88
2023-05-23T06:34:47.371Z,85.58
2023-05-23T06:35:47.370Z,85.58
2023-05-23T06:36:47.350Z,85.88
2023-05-23T06:37:47.439Z,85.38
2023-05-23T06:38:47.298Z,85.68
2023-05-23T06:39:47.366Z,85.27
2023-05-23T06:40:47.251Z,85.58
2023-05-23T06:41:47.258Z,85.38
2023-05-23T06:42:47.219Z,85.93
2023-05-23T06:43:47.280Z,86.39
2023-05-23T06:44:47.229Z,85.78
2023-05-23T06:45:47.385Z,86.08
2023-05-23T06:46:47.131Z,86.19
2023-05-23T06:47:47.143Z,85.68
2023-05-23T06:48:47.221Z,86.13
2023-05-23T06:49:47.072Z,86.19
2023-05-23T06:50:47.139Z,85.58
2023-05-23T06:51:47.088Z,86.08
2023-05-23T06:52:47.182Z,86.19
2023-05-23T06:53:46.975Z,85.99
2023-05-23T06:54:47.061Z,85.68
2023-05-23T06:55:46.927Z,86.08
2023-05-23T06:56:47.060Z,86.08
2023-05-23T06:57:46.891Z,87.34
2023-05-23T06:58:47.235Z,86.94
2023-05-23T06:59:46.844Z,87.10
2023-05-23T07:00:46.969Z,86.13
2023-05-23T07:01:47.022Z,86.79
2023-05-23T07:02:46.944Z,87.34
2023-05-23T07:03:46.761Z,88.05
2023-05-23T07:04:46.881Z,87.45
2023-05-23T07:05:46.779Z,87.54
2023-05-23T07:06:46.847Z,87.65
2023-05-23T07:07:46.685Z,87.18
2023-05-23T07:08:46.693Z,87.18
2023-05-23T07:09:46.646Z,87.28
2023-05-23T07:10:46.618Z,87.18
2023-05-23T07:11:46.675Z,87.08
2023-05-23T07:12:46.589Z,87.48
2023-05-23T07:13:46.670Z,87.48
2023-05-23T07:14:46.528Z,87.28
2023-05-23T07:15:46.600Z,87.18
2023-05-23T07:16:46.535Z,86.16
2023-05-23T07:17:46.653Z,85.66
2023-05-23T07:18:46.473Z,86.22
2023-05-23T07:19:46.527Z,86.33
2023-05-23T07:20:48.112Z,86.27
2023-05-23T07:21:46.380Z,85.96
2023-05-23T07:22:46.364Z,86.37
2023-05-23T07:23:46.439Z,86.68
2023-05-23T07:24:46.316Z,86.47
2023-05-23T07:26:00.588Z,86.98
2023-05-23T07:26:46.270Z,87.45
2023-05-23T07:27:46.264Z,87.38
2023-05-23T07:28:46.217Z,87.08
2023-05-23T07:29:46.291Z,87.08
2023-05-23T07:30:46.243Z,86.98
2023-05-23T07:31:46.367Z,86.16
2023-05-23T07:32:46.184Z,86.16
2023-05-23T07:33:46.122Z,86.16
2023-05-23T07:34:46.226Z,87.95
2023-05-23T07:35:46.065Z,86.68
2023-05-23T07:36:46.135Z,87.28
2023-05-23T07:37:47.071Z,85.82
2023-05-23T07:38:46.009Z,86.16
2023-05-23T07:39:45.987Z,86.88
2023-05-23T07:40:55.378Z,87.08
2023-05-23T07:41:45.949Z,87.18
2023-05-23T07:42:46.088Z,87.69
2023-05-23T07:43:45.894Z,87.52
2023-05-23T07:44:45.878Z,87.63
2023-05-23T07:45:45.850Z,87.93
2023-05-23T07:46:45.898Z,87.52
2023-05-23T07:47:45.853Z,87.52
2023-05-23T07:48:45.912Z,87.93
2023-05-23T07:49:45.759Z,88.13
2023-05-23T07:50:45.742Z,88.44
2023-05-23T07:51:45.817Z,87.52
2023-05-23T07:52:45.709Z,87.43
2023-05-23T07:53:45.728Z,87.22
2023-05-23T07:54:45.648Z,87.46
2023-05-23T07:55:45.757Z,87.63
2023-05-23T07:56:45.620Z,87.87
2023-05-23T07:57:45.663Z,87.93
2023-05-23T07:58:45.571Z,88.44
2023-05-23T07:59:45.687Z,88.23
2023-05-23T08:00:45.600Z,88.13
2023-05-23T08:01:45.568Z,88.38
2023-05-23T08:02:45.513Z,88.38
2023-05-23T08:03:45.494Z,88.68
2023-05-23T08:04:45.466Z,89.19
2023-05-23T08:05:45.515Z,89.39
2023-05-23T08:06:56.323Z,89.50
2023-05-23T08:07:45.402Z,89.50
2023-05-23T08:08:45.433Z,90.00
2023-05-23T08:09:45.338Z,89.90
2023-05-23T08:10:45.342Z,90.00
2023-05-23T08:11:45.287Z,90.11
2023-05-23T08:12:45.365Z,89.80
2023-05-23T08:13:45.241Z,90.25
2023-05-23T08:14:51.562Z,90.14
2023-05-23T08:15:45.193Z,89.94
2023-05-23T08:16:45.330Z,90.05
2023-05-23T08:17:45.200Z,89.84
2023-05-23T08:18:45.143Z,90.86
2023-05-23T08:19:45.130Z,90.55
2023-05-23T08:20:45.180Z,90.35
2023-05-23T08:21:45.072Z,89.74
2023-05-23T08:22:45.088Z,90.14
2023-05-23T08:23:45.026Z,89.43
2023-05-23T08:24:45.010Z,89.23
2023-05-23T08:25:44.984Z,89.54
2023-05-23T08:26:45.020Z,89.74
2023-05-23T08:27:44.976Z,88.78
2023-05-23T08:28:45.037Z,88.18
2023-05-23T08:29:44.950Z,87.06
2023-05-23T08:30:44.872Z,86.82
2023-05-23T08:31:44.970Z,86.41
2023-05-23T08:32:44.869Z,86.10
2023-05-23T08:33:44.867Z,85.56
2023-05-23T08:34:44.781Z,84.24
2023-05-23T08:35:44.783Z,84.00
2023-05-23T08:36:44.739Z,83.69
2023-05-23T08:37:44.788Z,83.29
2023-05-23T08:38:44.703Z,82.58
2023-05-23T08:39:44.696Z,82.68
2023-05-23T08:40:44.689Z,82.17
2023-05-23T08:41:44.629Z,82.48
2023-05-23T08:42:44.640Z,82.28
2023-05-23T08:43:44.623Z,82.78
2023-05-23T08:44:44.580Z,82.68
2023-05-23T08:45:44.596Z,82.78
2023-05-23T08:46:44.731Z,82.98
2023-05-23T08:47:44.539Z,83.18
2023-05-23T08:48:44.494Z,83.33
2023-05-23T08:49:44.498Z,84.04
2023-05-23T08:50:44.436Z,84.64
2023-05-23T08:51:44.528Z,84.55
2023-05-23T08:52:44.408Z,84.44
2023-05-23T08:53:44.426Z,84.58
2023-05-23T08:54:44.352Z,84.38
2023-05-23T08:55:44.438Z,84.38
2023-05-23T08:56:44.307Z,84.69
2023-05-23T08:57:44.357Z,84.48
2023-05-23T08:58:44.367Z,83.87
2023-05-23T08:59:44.243Z,83.77
2023-05-23T09:00:44.541Z,83.37
2023-05-23T09:01:44.250Z,83.40
2023-05-23T09:02:44.329Z,83.26
2023-05-23T09:03:44.771Z,83.51
2023-05-23T09:04:44.137Z,82.25
2023-05-23T09:05:44.151Z,82.15
2023-05-23T09:06:44.137Z,82.50
2023-05-23T09:07:44.084Z,82.70
2023-05-23T09:08:44.124Z,82.80
2023-05-23T09:09:44.108Z,81.68
2023-05-23T09:10:44.017Z,82.19
2023-05-23T09:11:44.046Z,82.70
2023-05-23T09:12:43.979Z,82.84
2023-05-23T09:13:43.955Z,83.34
2023-05-23T09:14:43.937Z,83.75
2023-05-23T09:15:43.907Z,84.30
2023-05-23T09:16:43.961Z,84.56
2023-05-23T09:17:43.934Z,84.46
2023-05-23T09:18:43.866Z,83.95
2023-05-23T09:19:43.891Z,83.54
2023-05-23T09:20:43.786Z,83.14
2023-05-23T09:21:43.765Z,83.45
2023-05-23T09:22:43.831Z,82.53
2023-05-23T09:23:43.720Z,82.12
2023-05-23T09:24:43.739Z,82.12
2023-05-23T09:25:43.694Z,82.23
2023-05-23T09:26:43.756Z,81.92
2023-05-23T09:27:46.682Z,82.03
2023-05-23T09:28:43.656Z,80.80
2023-05-23T09:29:43.616Z,80.16
2023-05-23T09:30:43.689Z,79.99
2023-05-23T09:31:43.566Z,79.99
2023-05-23T09:32:43.578Z,80.06
2023-05-23T09:33:43.519Z,80.16
2023-05-23T09:34:43.562Z,80.06
2023-05-23T09:35:43.460Z,80.66
2023-05-23T09:36:43.485Z,80.46
2023-05-23T09:37:43.437Z,79.65
2023-05-23T09:38:43.396Z,78.80
2023-05-23T09:39:43.412Z,77.86
2023-05-23T09:40:43.428Z,78.36
2023-05-23T09:41:43.330Z,78.12
2023-05-23T09:42:43.413Z,76.29
2023-05-23T09:43:43.300Z,76.26
2023-05-23T09:44:43.268Z,76.26
2023-05-23T09:45:43.346Z,74.74
2023-05-23T09:46:43.252Z,74.51
2023-05-23T09:47:43.291Z,74.60
2023-05-23T09:48:43.202Z,75.38
2023-05-23T09:49:43.287Z,73.96
2023-05-23T09:50:43.229Z,73.63
2023-05-23T09:51:43.176Z,72.72
2023-05-23T09:52:43.103Z,72.61
2023-05-23T09:53:43.090Z,73.12
2023-05-23T09:54:43.050Z,73.19
2023-05-23T09:55:43.028Z,72.28
2023-05-23T09:56:43.016Z,72.28
2023-05-23T09:57:43.015Z,72.48
2023-05-23T09:58:42.960Z,72.58
2023-05-23T09:59:43.043Z,72.14
2023-05-23T10:00:43.148Z,72.24
2023-05-23T10:01:42.943Z,72.58
2023-05-23T10:02:42.981Z,71.73
2023-05-23T10:03:42.888Z,71.60
2023-05-23T10:04:42.939Z,72.17
2023-05-23T10:05:42.821Z,70.09
2023-05-23T10:06:42.883Z,70.19
2023-05-23T10:07:42.790Z,71.33
2023-05-23T10:08:42.825Z,66.30
2023-05-23T10:09:42.731Z,66.67
2023-05-23T10:10:42.908Z,66.17
2023-05-23T10:11:42.692Z,65.73
2023-05-23T10:12:42.674Z,63.85
2023-05-23T10:13:42.667Z,64.36
2023-05-23T10:14:42.735Z,64.43
2023-05-23T10:15:42.635Z,65.07
2023-05-23T10:16:42.822Z,64.27
2023-05-23T10:17:42.606Z,61.96
2023-05-23T10:18:42.554Z,60.75
2023-05-23T10:19:42.603Z,60.45
2023-05-23T10:20:42.801Z,61.76
2023-05-23T10:21:44.723Z,59.95
2023-05-23T10:22:42.495Z,59.67
2023-05-23T10:23:42.533Z,61.29
2023-05-23T10:24:42.474Z,61.41
2023-05-23T10:25:42.427Z,61.71
2023-05-23T10:26:42.423Z,63.12
2023-05-23T10:27:42.438Z,62.99
2023-05-23T10:28:42.365Z,63.09
2023-05-23T10:29:42.365Z,62.19
2023-05-23T10:30:42.583Z,62.29
2023-05-23T10:31:42.568Z,62.52
2023-05-23T10:32:42.312Z,62.89
2023-05-23T10:33:42.277Z,63.70
2023-05-23T10:34:42.262Z,63.12
2023-05-23T10:35:42.384Z,61.51
2023-05-23T10:36:42.201Z,61.14
2023-05-23T10:37:42.308Z,62.95
2023-05-23T10:38:42.162Z,62.05
2023-05-23T10:39:42.219Z,61.54
2023-05-23T10:40:42.319Z,63.15
2023-05-23T10:41:42.110Z,61.77
2023-05-23T10:42:42.114Z,62.01
2023-05-23T10:43:42.146Z,62.91
2023-05-23T10:44:42.049Z,63.75
2023-05-23T10:45:42.092Z,63.85
2023-05-23T10:46:42.062Z,64.45
2023-05-23T10:47:42.017Z,65.96
2023-05-23T10:48:42.079Z,64.12
2023-05-23T10:49:41.988Z,63.71
2023-05-23T10:50:42.528Z,63.89
2023-05-23T10:51:41.910Z,62.24
2023-05-23T10:52:41.999Z,61.14
2023-05-23T10:53:41.883Z,60.57
2023-05-23T10:54:41.944Z,60.06
2023-05-23T10:55:41.850Z,61.37
2023-05-23T10:56:41.927Z,61.67
2023-05-23T10:57:41.818Z,61.77
2023-05-23T10:58:41.784Z,62.58
2023-05-23T10:59:41.763Z,62.68
2023-05-23T11:00:42.026Z,62.30
2023-05-23T11:01:41.821Z,63.11
2023-05-23T11:02:41.785Z,63.01
2023-05-23T11:03:41.886Z,63.24
2023-05-23T11:04:41.677Z,63.65
2023-05-23T11:05:41.689Z,63.57
2023-05-23T11:06:41.632Z,63.67
2023-05-23T11:07:41.707Z,64.01
2023-05-23T11:08:47.550Z,63.60
2023-05-23T11:09:41.574Z,63.57
2023-05-23T11:10:41.822Z,63.57
2023-05-23T11:11:41.648Z,64.48
2023-05-23T11:12:41.537Z,64.48
2023-05-23T11:13:41.554Z,64.65
2023-05-23T11:14:41.477Z,61.50
2023-05-23T11:15:41.569Z,60.36
2023-05-23T11:16:41.632Z,58.42
2023-05-23T11:17:41.515Z,58.12
2023-05-23T11:18:41.559Z,59.13
2023-05-23T11:19:41.559Z,59.80
2023-05-23T11:20:41.731Z,57.97
2023-05-23T11:21:41.414Z,58.24
2023-05-23T11:22:41.411Z,57.04
2023-05-23T11:23:41.406Z,56.30
2023-05-23T11:24:41.313Z,56.21
2023-05-23T11:25:41.291Z,55.83
2023-05-23T11:26:41.256Z,57.14
2023-05-23T11:27:41.360Z,58.14
2023-05-23T11:28:41.363Z,58.01
2023-05-23T11:29:41.246Z,57.84
2023-05-23T11:30:41.413Z,57.04
2023-05-23T11:31:41.180Z,57.14
2023-05-23T11:32:41.235Z,58.27
2023-05-23T11:33:41.180Z,58.57
2023-05-23T11:34:41.107Z,59.17
2023-05-23T11:35:41.197Z,58.90
2023-05-23T11:36:41.084Z,59.10
2023-05-23T11:37:41.075Z,60.41
2023-05-23T11:38:41.037Z,58.20
2023-05-23T11:39:41.120Z,60.11
2023-05-23T11:40:41.415Z,60.03
2023-05-23T11:41:41.030Z,60.03
2023-05-23T11:42:40.976Z,60.27
2023-05-23T11:43:40.948Z,58.65
2023-05-23T11:44:40.947Z,60.47
2023-05-23T11:45:40.985Z,60.44
2023-05-23T11:46:40.961Z,59.83
2023-05-23T11:47:40.938Z,59.03
2023-05-23T11:48:40.864Z,60.03
2023-05-23T11:49:40.833Z,60.33
2023-05-23T11:50:41.509Z,60.71
2023-05-23T11:51:40.796Z,59.80
2023-05-23T11:52:40.812Z,58.27
2023-05-23T11:53:40.757Z,58.47
2023-05-23T11:54:40.784Z,57.67
2023-05-23T11:55:40.742Z,59.85
2023-05-23T11:56:40.726Z,58.01
2023-05-23T11:57:40.698Z,58.51
2023-05-23T11:58:40.747Z,58.18
2023-05-23T11:59:40.655Z,57.79
2023-05-23T12:00:40.807Z,57.79
2023-05-23T12:01:40.662Z,56.23
2023-05-23T12:02:40.699Z,59.91
2023-05-23T12:03:40.794Z,57.57
2023-05-23T12:04:40.579Z,55.44
2023-05-23T12:05:40.585Z,52.42
2023-05-23T12:06:40.590Z,55.79
2023-05-23T12:07:40.551Z,53.32
2023-05-23T12:08:40.503Z,53.24
2023-05-23T12:09:40.464Z,51.54
2023-05-23T12:10:40.750Z,52.87
2023-05-23T12:11:40.434Z,52.57
2023-05-23T12:12:40.424Z,53.27
2023-05-23T12:13:40.422Z,53.39
2023-05-23T12:14:40.441Z,54.00
2023-05-23T12:15:40.472Z,53.82
2023-05-23T12:16:40.407Z,53.32
2023-05-23T12:17:40.390Z,53.05
2023-05-23T12:18:40.324Z,53.34
2023-05-23T12:19:40.431Z,52.37
2023-05-23T12:20:40.585Z,53.87
2023-05-23T12:21:40.290Z,55.95
2023-05-23T12:22:40.251Z,55.95
2023-05-23T12:23:40.239Z,54.05
2023-05-23T12:24:40.200Z,53.14
2023-05-23T12:25:40.333Z,54.65
2023-05-23T12:26:40.166Z,53.22
2023-05-23T12:27:40.231Z,53.32
2023-05-23T12:28:40.143Z,53.59
2023-05-23T12:29:40.115Z,53.59
2023-05-23T12:30:40.188Z,53.80
2023-05-23T12:31:40.200Z,53.55
2023-05-23T12:32:40.126Z,52.47
2023-05-23T12:33:40.072Z,50.09
2023-05-23T12:34:40.038Z,50.67
2023-05-23T12:35:40.167Z,51.54
2023-05-23T12:36:48.480Z,48.74
2023-05-23T12:37:40.003Z,48.54
2023-05-23T12:38:40.011Z,48.34
2023-05-23T12:39:39.944Z,49.02
2023-05-23T12:40:40.035Z,48.49
2023-05-23T12:41:39.912Z,47.89
2023-05-23T12:42:39.938Z,49.79
2023-05-23T12:43:39.902Z,47.77
2023-05-23T12:44:39.868Z,48.17
2023-05-23T12:45:40.087Z,46.97
2023-05-23T12:46:39.858Z,46.87
2023-05-23T12:47:39.854Z,48.07
2023-05-23T12:48:39.876Z,48.05
2023-05-23T12:49:39.781Z,48.94
2023-05-23T12:50:39.789Z,48.43
2023-05-23T12:51:39.747Z,49.10
2023-05-23T12:52:39.742Z,47.38